sensor_id;sensor_type;location;lat;lon;timestamp;P1;durP1;ratioP1;P2;durP2;ratioP2
70985;SDS011;58645;43.068;25.610;2023-06-22T00:00:56;19.70;;;13.38;;
70985;SDS011;58645;43.068;25.610;2023-06-22T00:03:24;18.60;;;14.15;;
70985;SDS011;58645;43.068;25.610;2023-06-22T00:05:50;19.00;;;13.05;;
70985;SDS011;58645;43.068;25.610;2023-06-22T00:08:17;19.30;;;13.05;;
70985;SDS011;58645;43.068;25.610;2023-06-22T00:10:44;18.98;;;12.35;;
70985;SDS011;58645;43.068;25.610;2023-06-22T00:13:11;20.70;;;11.52;;
70985;SDS011;58645;43.068;25.610;2023-06-22T00:15:38;17.50;;;12.27;;
70985;SDS011;58645;43.068;25.610;2023-06-22T00:18:08;15.57;;;10.88;;
70985;SDS011;58645;43.068;25.610;2023-06-22T00:20:35;17.88;;;11.85;;
70985;SDS011;58645;43.068;25.610;2023-06-22T00:23:04;14.38;;;11.00;;
70985;SDS011;58645;43.068;25.610;2023-06-22T00:25:36;17.63;;;11.93;;
70985;SDS011;58645;43.068;25.610;2023-06-22T00:28:03;17.13;;;13.10;;
70985;SDS011;58645;43.068;25.610;2023-06-22T00:30:30;27.75;;;17.67;;
70985;SDS011;58645;43.068;25.610;2023-06-22T00:32:56;44.08;;;23.38;;
70985;SDS011;58645;43.068;25.610;2023-06-22T00:35:23;36.95;;;21.67;;
70985;SDS011;58645;43.068;25.610;2023-06-22T00:37:58;36.03;;;19.95;;
70985;SDS011;58645;43.068;25.610;2023-06-22T00:40:29;25.65;;;17.33;;
70985;SDS011;58645;43.068;25.610;2023-06-22T00:42:57;25.58;;;18.10;;
70985;SDS011;58645;43.068;25.610;2023-06-22T00:45:23;27.88;;;16.95;;
70985;SDS011;58645;43.068;25.610;2023-06-22T00:47:50;21.65;;;14.75;;
70985;SDS011;58645;43.068;25.610;2023-06-22T00:50:24;24.83;;;16.15;;
70985;SDS011;58645;43.068;25.610;2023-06-22T00:52:52;24.95;;;15.52;;
70985;SDS011;58645;43.068;25.610;2023-06-22T00:55:21;22.55;;;15.02;;
70985;SDS011;58645;43.068;25.610;2023-06-22T00:57:48;22.52;;;14.02;;
70985;SDS011;58645;43.068;25.610;2023-06-22T01:00:14;22.27;;;15.40;;
70985;SDS011;58645;43.068;25.610;2023-06-22T01:02:45;19.60;;;13.60;;
70985;SDS011;58645;43.068;25.610;2023-06-22T01:05:15;19.73;;;12.90;;
70985;SDS011;58645;43.068;25.610;2023-06-22T01:07:49;24.60;;;15.15;;
70985;SDS011;58645;43.068;25.610;2023-06-22T01:16:17;29.55;;;17.50;;
70985;SDS011;58645;43.068;25.610;2023-06-22T01:18:51;27.15;;;17.73;;
70985;SDS011;58645;43.068;25.610;2023-06-22T01:21:20;22.70;;;14.40;;
70985;SDS011;58645;43.068;25.610;2023-06-22T01:26:43;24.55;;;14.82;;
70985;SDS011;58645;43.068;25.610;2023-06-22T01:29:20;21.60;;;13.48;;
70985;SDS011;58645;43.068;25.610;2023-06-22T01:31:47;25.60;;;16.45;;
70985;SDS011;58645;43.068;25.610;2023-06-22T01:34:14;24.58;;;14.20;;
70985;SDS011;58645;43.068;25.610;2023-06-22T01:36:41;20.60;;;14.93;;
70985;SDS011;58645;43.068;25.610;2023-06-22T01:39:08;19.70;;;12.98;;
70985;SDS011;58645;43.068;25.610;2023-06-22T01:41:36;21.60;;;12.98;;
70985;SDS011;58645;43.068;25.610;2023-06-22T01:44:06;22.20;;;14.68;;
70985;SDS011;58645;43.068;25.610;2023-06-22T01:46:34;19.08;;;11.88;;
70985;SDS011;58645;43.068;25.610;2023-06-22T01:49:04;20.92;;;12.48;;
70985;SDS011;58645;43.068;25.610;2023-06-22T01:51:30;20.40;;;12.30;;
70985;SDS011;58645;43.068;25.610;2023-06-22T01:53:56;21.08;;;14.43;;
70985;SDS011;58645;43.068;25.610;2023-06-22T01:56:22;22.95;;;15.20;;
70985;SDS011;58645;43.068;25.610;2023-06-22T01:58:50;23.35;;;16.55;;
70985;SDS011;58645;43.068;25.610;2023-06-22T02:01:24;24.10;;;14.75;;
70985;SDS011;58645;43.068;25.610;2023-06-22T02:04:07;24.00;;;14.18;;
70985;SDS011;58645;43.068;25.610;2023-06-22T02:06:38;23.10;;;13.73;;
70985;SDS011;58645;43.068;25.610;2023-06-22T02:09:11;23.08;;;14.38;;
70985;SDS011;58645;43.068;25.610;2023-06-22T02:11:41;24.17;;;14.88;;
70985;SDS011;58645;43.068;25.610;2023-06-22T02:14:09;24.00;;;14.18;;
70985;SDS011;58645;43.068;25.610;2023-06-22T02:16:37;29.45;;;15.52;;
70985;SDS011;58645;43.068;25.610;2023-06-22T02:19:03;23.73;;;15.73;;
70985;SDS011;58645;43.068;25.610;2023-06-22T02:21:29;30.98;;;17.60;;
70985;SDS011;58645;43.068;25.610;2023-06-22T02:23:56;22.67;;;15.30;;
70985;SDS011;58645;43.068;25.610;2023-06-22T02:26:21;24.48;;;13.02;;
70985;SDS011;58645;43.068;25.610;2023-06-22T02:28:48;23.13;;;14.65;;
70985;SDS011;58645;43.068;25.610;2023-06-22T02:31:14;32.63;;;17.83;;
70985;SDS011;58645;43.068;25.610;2023-06-22T02:33:41;37.75;;;17.48;;
70985;SDS011;58645;43.068;25.610;2023-06-22T02:36:06;32.22;;;16.73;;
70985;SDS011;58645;43.068;25.610;2023-06-22T02:38:34;24.10;;;15.90;;
70985;SDS011;58645;43.068;25.610;2023-06-22T02:41:01;27.95;;;15.60;;
70985;SDS011;58645;43.068;25.610;2023-06-22T02:43:27;27.98;;;14.95;;
70985;SDS011;58645;43.068;25.610;2023-06-22T02:45:53;26.25;;;15.13;;
70985;SDS011;58645;43.068;25.610;2023-06-22T02:48:19;20.98;;;14.85;;
70985;SDS011;58645;43.068;25.610;2023-06-22T02:50:44;22.67;;;14.13;;
70985;SDS011;58645;43.068;25.610;2023-06-22T02:53:10;30.00;;;13.85;;
70985;SDS011;58645;43.068;25.610;2023-06-22T02:55:36;22.30;;;13.73;;
70985;SDS011;58645;43.068;25.610;2023-06-22T02:58:02;26.55;;;14.45;;
70985;SDS011;58645;43.068;25.610;2023-06-22T03:00:30;27.15;;;14.93;;
70985;SDS011;58645;43.068;25.610;2023-06-22T03:02:56;24.83;;;16.88;;
70985;SDS011;58645;43.068;25.610;2023-06-22T03:05:22;26.83;;;15.73;;
70985;SDS011;58645;43.068;25.610;2023-06-22T03:07:48;28.15;;;16.08;;
70985;SDS011;58645;43.068;25.610;2023-06-22T03:12:41;27.92;;;15.73;;
70985;SDS011;58645;43.068;25.610;2023-06-22T03:15:08;25.92;;;15.43;;
70985;SDS011;58645;43.068;25.610;2023-06-22T03:17:36;27.08;;;15.15;;
70985;SDS011;58645;43.068;25.610;2023-06-22T03:20:03;27.42;;;15.02;;
70985;SDS011;58645;43.068;25.610;2023-06-22T03:22:39;21.27;;;13.98;;
70985;SDS011;58645;43.068;25.610;2023-06-22T03:25:09;21.52;;;14.65;;
70985;SDS011;58645;43.068;25.610;2023-06-22T03:27:36;22.75;;;14.18;;
70985;SDS011;58645;43.068;25.610;2023-06-22T03:30:02;25.42;;;14.95;;
70985;SDS011;58645;43.068;25.610;2023-06-22T03:32:28;22.58;;;13.25;;
70985;SDS011;58645;43.068;25.610;2023-06-22T03:34:54;18.73;;;12.85;;
70985;SDS011;58645;43.068;25.610;2023-06-22T03:37:24;19.15;;;11.80;;
70985;SDS011;58645;43.068;25.610;2023-06-22T03:39:53;31.42;;;18.15;;
70985;SDS011;58645;43.068;25.610;2023-06-22T03:42:19;29.55;;;16.48;;
70985;SDS011;58645;43.068;25.610;2023-06-22T03:44:45;21.65;;;15.05;;
70985;SDS011;58645;43.068;25.610;2023-06-22T03:47:11;19.60;;;12.35;;
70985;SDS011;58645;43.068;25.610;2023-06-22T03:49:37;15.68;;;11.15;;
70985;SDS011;58645;43.068;25.610;2023-06-22T03:52:02;15.40;;;10.63;;
70985;SDS011;58645;43.068;25.610;2023-06-22T03:54:29;18.13;;;10.63;;
70985;SDS011;58645;43.068;25.610;2023-06-22T03:56:56;20.52;;;11.05;;
70985;SDS011;58645;43.068;25.610;2023-06-22T03:59:22;17.77;;;10.88;;
70985;SDS011;58645;43.068;25.610;2023-06-22T04:01:48;15.90;;;11.15;;
70985;SDS011;58645;43.068;25.610;2023-06-22T04:04:14;18.58;;;11.20;;
70985;SDS011;58645;43.068;25.610;2023-06-22T04:06:41;17.45;;;11.77;;
70985;SDS011;58645;43.068;25.610;2023-06-22T04:09:06;25.25;;;15.23;;
70985;SDS011;58645;43.068;25.610;2023-06-22T04:11:32;22.80;;;14.23;;
70985;SDS011;58645;43.068;25.610;2023-06-22T04:13:58;19.50;;;14.45;;
70985;SDS011;58645;43.068;25.610;2023-06-22T04:16:23;25.92;;;16.85;;
70985;SDS011;58645;43.068;25.610;2023-06-22T04:18:49;37.67;;;19.05;;
70985;SDS011;58645;43.068;25.610;2023-06-22T04:21:15;27.80;;;17.90;;
70985;SDS011;58645;43.068;25.610;2023-06-22T04:23:40;27.13;;;19.30;;
70985;SDS011;58645;43.068;25.610;2023-06-22T04:26:08;26.15;;;16.30;;
70985;SDS011;58645;43.068;25.610;2023-06-22T04:28:33;21.85;;;16.42;;
70985;SDS011;58645;43.068;25.610;2023-06-22T04:31:02;29.38;;;17.38;;
70985;SDS011;58645;43.068;25.610;2023-06-22T04:33:28;31.10;;;19.85;;
70985;SDS011;58645;43.068;25.610;2023-06-22T04:35:57;29.58;;;17.75;;
70985;SDS011;58645;43.068;25.610;2023-06-22T04:38:26;31.58;;;18.10;;
70985;SDS011;58645;43.068;25.610;2023-06-22T04:40:51;25.88;;;17.05;;
70985;SDS011;58645;43.068;25.610;2023-06-22T04:43:18;25.92;;;16.70;;
70985;SDS011;58645;43.068;25.610;2023-06-22T04:45:44;25.80;;;15.45;;
70985;SDS011;58645;43.068;25.610;2023-06-22T04:48:10;25.95;;;17.70;;
70985;SDS011;58645;43.068;25.610;2023-06-22T04:50:41;25.92;;;15.63;;
70985;SDS011;58645;43.068;25.610;2023-06-22T04:53:07;24.02;;;16.30;;
70985;SDS011;58645;43.068;25.610;2023-06-22T04:55:37;27.73;;;17.35;;
70985;SDS011;58645;43.068;25.610;2023-06-22T04:58:10;24.70;;;16.73;;
70985;SDS011;58645;43.068;25.610;2023-06-22T05:00:37;47.13;;;26.38;;
70985;SDS011;58645;43.068;25.610;2023-06-22T05:03:03;34.65;;;19.52;;
70985;SDS011;58645;43.068;25.610;2023-06-22T05:05:31;25.35;;;15.00;;
70985;SDS011;58645;43.068;25.610;2023-06-22T05:07:57;29.25;;;14.48;;
70985;SDS011;58645;43.068;25.610;2023-06-22T05:10:26;24.92;;;16.40;;
70985;SDS011;58645;43.068;25.610;2023-06-22T05:12:52;33.13;;;19.67;;
70985;SDS011;58645;43.068;25.610;2023-06-22T05:15:17;29.88;;;19.15;;
70985;SDS011;58645;43.068;25.610;2023-06-22T05:17:47;33.55;;;20.77;;
70985;SDS011;58645;43.068;25.610;2023-06-22T05:20:16;35.95;;;22.88;;
70985;SDS011;58645;43.068;25.610;2023-06-22T05:22:43;38.75;;;27.63;;
70985;SDS011;58645;43.068;25.610;2023-06-22T05:25:10;42.58;;;30.27;;
70985;SDS011;58645;43.068;25.610;2023-06-22T05:27:36;37.88;;;25.08;;
70985;SDS011;58645;43.068;25.610;2023-06-22T05:30:08;29.65;;;21.30;;
70985;SDS011;58645;43.068;25.610;2023-06-22T05:32:35;21.02;;;16.90;;
70985;SDS011;58645;43.068;25.610;2023-06-22T05:35:01;32.45;;;24.83;;
70985;SDS011;58645;43.068;25.610;2023-06-22T05:37:28;39.92;;;31.25;;
70985;SDS011;58645;43.068;25.610;2023-06-22T05:39:54;40.67;;;28.00;;
70985;SDS011;58645;43.068;25.610;2023-06-22T05:42:20;31.45;;;23.55;;
70985;SDS011;58645;43.068;25.610;2023-06-22T05:44:46;31.50;;;25.40;;
70985;SDS011;58645;43.068;25.610;2023-06-22T05:47:12;30.58;;;23.90;;
70985;SDS011;58645;43.068;25.610;2023-06-22T05:52:04;25.00;;;19.25;;
70985;SDS011;58645;43.068;25.610;2023-06-22T05:54:29;22.83;;;16.42;;
70985;SDS011;58645;43.068;25.610;2023-06-22T05:59:21;14.75;;;11.30;;
70985;SDS011;58645;43.068;25.610;2023-06-22T06:04:18;18.17;;;12.65;;
70985;SDS011;58645;43.068;25.610;2023-06-22T06:06:44;17.83;;;13.45;;
70985;SDS011;58645;43.068;25.610;2023-06-22T06:09:12;17.27;;;13.15;;
70985;SDS011;58645;43.068;25.610;2023-06-22T06:11:39;16.38;;;12.25;;
70985;SDS011;58645;43.068;25.610;2023-06-22T06:16:30;19.50;;;13.88;;
70985;SDS011;58645;43.068;25.610;2023-06-22T06:18:56;20.60;;;15.23;;
70985;SDS011;58645;43.068;25.610;2023-06-22T06:21:26;22.63;;;17.60;;
70985;SDS011;58645;43.068;25.610;2023-06-22T06:23:55;22.17;;;17.55;;
70985;SDS011;58645;43.068;25.610;2023-06-22T06:26:21;24.83;;;16.73;;
70985;SDS011;58645;43.068;25.610;2023-06-22T06:28:53;18.67;;;14.95;;
70985;SDS011;58645;43.068;25.610;2023-06-22T06:31:20;24.02;;;16.45;;
70985;SDS011;58645;43.068;25.610;2023-06-22T06:33:46;22.85;;;16.77;;
70985;SDS011;58645;43.068;25.610;2023-06-22T06:36:11;20.75;;;15.60;;
70985;SDS011;58645;43.068;25.610;2023-06-22T06:38:37;24.70;;;16.80;;
70985;SDS011;58645;43.068;25.610;2023-06-22T06:41:03;22.23;;;16.00;;
70985;SDS011;58645;43.068;25.610;2023-06-22T06:43:29;25.95;;;16.98;;
70985;SDS011;58645;43.068;25.610;2023-06-22T06:45:54;27.35;;;17.05;;
70985;SDS011;58645;43.068;25.610;2023-06-22T06:48:20;24.23;;;19.23;;
70985;SDS011;58645;43.068;25.610;2023-06-22T06:50:46;24.92;;;18.38;;
70985;SDS011;58645;43.068;25.610;2023-06-22T06:53:12;21.63;;;16.48;;
70985;SDS011;58645;43.068;25.610;2023-06-22T06:55:38;22.15;;;16.27;;
70985;SDS011;58645;43.068;25.610;2023-06-22T06:58:04;21.17;;;18.83;;
70985;SDS011;58645;43.068;25.610;2023-06-22T07:00:32;21.42;;;17.75;;
70985;SDS011;58645;43.068;25.610;2023-06-22T07:02:58;21.67;;;16.52;;
70985;SDS011;58645;43.068;25.610;2023-06-22T07:05:24;22.48;;;15.98;;
70985;SDS011;58645;43.068;25.610;2023-06-22T07:07:50;20.25;;;15.48;;
70985;SDS011;58645;43.068;25.610;2023-06-22T07:10:15;20.63;;;17.35;;
70985;SDS011;58645;43.068;25.610;2023-06-22T07:12:41;19.95;;;14.30;;
70985;SDS011;58645;43.068;25.610;2023-06-22T07:15:08;20.15;;;14.45;;
70985;SDS011;58645;43.068;25.610;2023-06-22T07:17:34;19.15;;;14.90;;
70985;SDS011;58645;43.068;25.610;2023-06-22T07:20:01;22.02;;;17.13;;
70985;SDS011;58645;43.068;25.610;2023-06-22T07:22:32;16.45;;;14.65;;
70985;SDS011;58645;43.068;25.610;2023-06-22T07:24:58;12.88;;;9.57;;
70985;SDS011;58645;43.068;25.610;2023-06-22T07:27:24;14.63;;;9.38;;
70985;SDS011;58645;43.068;25.610;2023-06-22T07:29:50;15.05;;;10.50;;
70985;SDS011;58645;43.068;25.610;2023-06-22T07:32:15;13.20;;;11.18;;
70985;SDS011;58645;43.068;25.610;2023-06-22T07:34:41;11.57;;;8.95;;
70985;SDS011;58645;43.068;25.610;2023-06-22T07:37:08;10.45;;;7.82;;
70985;SDS011;58645;43.068;25.610;2023-06-22T07:39:33;11.45;;;7.72;;
70985;SDS011;58645;43.068;25.610;2023-06-22T07:41:59;7.28;;;6.47;;
70985;SDS011;58645;43.068;25.610;2023-06-22T07:44:25;7.97;;;6.60;;
70985;SDS011;58645;43.068;25.610;2023-06-22T07:46:51;10.57;;;8.52;;
70985;SDS011;58645;43.068;25.610;2023-06-22T07:49:17;10.23;;;7.75;;
70985;SDS011;58645;43.068;25.610;2023-06-22T07:51:44;8.85;;;7.10;;
70985;SDS011;58645;43.068;25.610;2023-06-22T07:54:09;9.75;;;7.40;;
70985;SDS011;58645;43.068;25.610;2023-06-22T07:56:36;8.90;;;8.00;;
70985;SDS011;58645;43.068;25.610;2023-06-22T07:59:02;10.20;;;8.50;;
70985;SDS011;58645;43.068;25.610;2023-06-22T08:01:29;13.38;;;9.13;;
70985;SDS011;58645;43.068;25.610;2023-06-22T08:03:55;11.20;;;9.95;;
70985;SDS011;58645;43.068;25.610;2023-06-22T08:06:21;13.88;;;10.52;;
70985;SDS011;58645;43.068;25.610;2023-06-22T08:08:46;13.48;;;8.45;;
70985;SDS011;58645;43.068;25.610;2023-06-22T08:11:13;13.10;;;10.80;;
70985;SDS011;58645;43.068;25.610;2023-06-22T08:13:39;19.23;;;14.38;;
70985;SDS011;58645;43.068;25.610;2023-06-22T08:16:05;18.55;;;13.52;;
70985;SDS011;58645;43.068;25.610;2023-06-22T08:18:32;14.95;;;12.50;;
70985;SDS011;58645;43.068;25.610;2023-06-22T08:20:58;17.92;;;13.27;;
70985;SDS011;58645;43.068;25.610;2023-06-22T08:23:24;15.98;;;11.20;;
70985;SDS011;58645;43.068;25.610;2023-06-22T08:25:50;16.92;;;14.13;;
70985;SDS011;58645;43.068;25.610;2023-06-22T08:28:16;18.30;;;12.07;;
70985;SDS011;58645;43.068;25.610;2023-06-22T08:30:42;10.70;;;9.60;;
70985;SDS011;58645;43.068;25.610;2023-06-22T08:33:07;9.85;;;8.52;;
70985;SDS011;58645;43.068;25.610;2023-06-22T08:35:33;8.57;;;6.88;;
70985;SDS011;58645;43.068;25.610;2023-06-22T08:37:59;10.52;;;9.48;;
70985;SDS011;58645;43.068;25.610;2023-06-22T08:40:25;15.63;;;11.65;;
70985;SDS011;58645;43.068;25.610;2023-06-22T08:42:51;18.55;;;11.43;;
70985;SDS011;58645;43.068;25.610;2023-06-22T08:45:17;16.85;;;12.90;;
70985;SDS011;58645;43.068;25.610;2023-06-22T08:47:42;14.32;;;10.80;;
70985;SDS011;58645;43.068;25.610;2023-06-22T08:50:09;16.63;;;11.10;;
70985;SDS011;58645;43.068;25.610;2023-06-22T08:52:35;12.88;;;10.93;;
70985;SDS011;58645;43.068;25.610;2023-06-22T08:55:01;16.88;;;9.77;;
70985;SDS011;58645;43.068;25.610;2023-06-22T08:57:27;12.38;;;9.40;;
70985;SDS011;58645;43.068;25.610;2023-06-22T08:59:54;13.68;;;10.00;;
70985;SDS011;58645;43.068;25.610;2023-06-22T09:02:23;12.75;;;10.25;;
70985;SDS011;58645;43.068;25.610;2023-06-22T09:04:49;10.75;;;9.07;;
70985;SDS011;58645;43.068;25.610;2023-06-22T09:07:21;12.18;;;9.57;;
70985;SDS011;58645;43.068;25.610;2023-06-22T09:09:48;11.63;;;9.93;;
70985;SDS011;58645;43.068;25.610;2023-06-22T09:12:14;12.48;;;9.60;;
70985;SDS011;58645;43.068;25.610;2023-06-22T09:14:40;12.00;;;8.75;;
70985;SDS011;58645;43.068;25.610;2023-06-22T09:17:15;10.23;;;9.15;;
70985;SDS011;58645;43.068;25.610;2023-06-22T09:22:09;11.65;;;8.88;;
70985;SDS011;58645;43.068;25.610;2023-06-22T09:24:35;8.43;;;7.30;;
70985;SDS011;58645;43.068;25.610;2023-06-22T09:27:01;10.13;;;7.80;;
70985;SDS011;58645;43.068;25.610;2023-06-22T09:29:27;10.48;;;8.35;;
70985;SDS011;58645;43.068;25.610;2023-06-22T09:31:52;8.68;;;7.80;;
70985;SDS011;58645;43.068;25.610;2023-06-22T09:34:21;9.10;;;7.95;;
70985;SDS011;58645;43.068;25.610;2023-06-22T09:36:47;7.43;;;6.70;;
70985;SDS011;58645;43.068;25.610;2023-06-22T09:39:12;7.88;;;6.55;;
70985;SDS011;58645;43.068;25.610;2023-06-22T09:41:38;7.47;;;6.78;;
70985;SDS011;58645;43.068;25.610;2023-06-22T09:44:04;7.95;;;7.15;;
70985;SDS011;58645;43.068;25.610;2023-06-22T09:46:30;9.13;;;7.05;;
70985;SDS011;58645;43.068;25.610;2023-06-22T09:48:55;8.73;;;7.22;;
70985;SDS011;58645;43.068;25.610;2023-06-22T09:51:22;7.90;;;6.85;;
70985;SDS011;58645;43.068;25.610;2023-06-22T09:53:49;11.75;;;7.65;;
70985;SDS011;58645;43.068;25.610;2023-06-22T09:56:15;9.00;;;7.00;;
70985;SDS011;58645;43.068;25.610;2023-06-22T09:58:44;7.95;;;6.97;;
70985;SDS011;58645;43.068;25.610;2023-06-22T10:01:12;7.63;;;6.82;;
70985;SDS011;58645;43.068;25.610;2023-06-22T10:03:41;6.93;;;6.32;;
70985;SDS011;58645;43.068;25.610;2023-06-22T10:06:07;8.90;;;7.32;;
70985;SDS011;58645;43.068;25.610;2023-06-22T10:08:34;10.98;;;9.02;;
70985;SDS011;58645;43.068;25.610;2023-06-22T10:11:00;9.38;;;7.07;;
70985;SDS011;58645;43.068;25.610;2023-06-22T10:13:26;7.85;;;7.05;;
70985;SDS011;58645;43.068;25.610;2023-06-22T10:15:52;9.02;;;6.78;;
70985;SDS011;58645;43.068;25.610;2023-06-22T10:18:18;9.02;;;7.30;;
70985;SDS011;58645;43.068;25.610;2023-06-22T10:20:48;8.70;;;7.72;;
70985;SDS011;58645;43.068;25.610;2023-06-22T10:23:18;8.80;;;7.88;;
70985;SDS011;58645;43.068;25.610;2023-06-22T10:25:45;7.75;;;6.88;;
70985;SDS011;58645;43.068;25.610;2023-06-22T10:28:10;8.90;;;6.47;;
70985;SDS011;58645;43.068;25.610;2023-06-22T10:30:38;10.27;;;6.82;;
70985;SDS011;58645;43.068;25.610;2023-06-22T10:33:07;8.68;;;7.18;;
70985;SDS011;58645;43.068;25.610;2023-06-22T10:35:33;8.90;;;7.30;;
70985;SDS011;58645;43.068;25.610;2023-06-22T10:37:59;8.68;;;7.10;;
70985;SDS011;58645;43.068;25.610;2023-06-22T10:40:25;7.20;;;6.50;;
70985;SDS011;58645;43.068;25.610;2023-06-22T10:42:51;8.25;;;6.65;;
70985;SDS011;58645;43.068;25.610;2023-06-22T10:45:16;6.85;;;6.15;;
70985;SDS011;58645;43.068;25.610;2023-06-22T10:47:42;7.47;;;6.47;;
70985;SDS011;58645;43.068;25.610;2023-06-22T10:50:08;7.05;;;5.95;;
70985;SDS011;58645;43.068;25.610;2023-06-22T10:52:34;6.43;;;5.40;;
70985;SDS011;58645;43.068;25.610;2023-06-22T10:55:00;7.78;;;5.80;;
70985;SDS011;58645;43.068;25.610;2023-06-22T10:57:25;6.68;;;4.97;;
70985;SDS011;58645;43.068;25.610;2023-06-22T10:59:51;5.70;;;5.15;;
70985;SDS011;58645;43.068;25.610;2023-06-22T11:02:17;8.23;;;5.22;;
70985;SDS011;58645;43.068;25.610;2023-06-22T11:04:42;6.20;;;5.60;;
70985;SDS011;58645;43.068;25.610;2023-06-22T11:07:09;7.50;;;5.50;;
70985;SDS011;58645;43.068;25.610;2023-06-22T11:09:34;6.18;;;5.57;;
70985;SDS011;58645;43.068;25.610;2023-06-22T11:12:00;8.15;;;5.30;;
70985;SDS011;58645;43.068;25.610;2023-06-22T11:14:26;5.55;;;4.72;;
70985;SDS011;58645;43.068;25.610;2023-06-22T11:16:52;6.03;;;5.00;;
70985;SDS011;58645;43.068;25.610;2023-06-22T11:19:18;7.43;;;4.55;;
70985;SDS011;58645;43.068;25.610;2023-06-22T11:21:47;4.80;;;4.30;;
70985;SDS011;58645;43.068;25.610;2023-06-22T11:24:33;7.63;;;4.57;;
70985;SDS011;58645;43.068;25.610;2023-06-22T11:26:59;5.10;;;4.60;;
70985;SDS011;58645;43.068;25.610;2023-06-22T11:29:24;6.13;;;4.75;;
70985;SDS011;58645;43.068;25.610;2023-06-22T11:31:50;5.32;;;4.60;;
70985;SDS011;58645;43.068;25.610;2023-06-22T11:34:16;4.95;;;4.00;;
70985;SDS011;58645;43.068;25.610;2023-06-22T11:36:42;5.25;;;4.50;;
70985;SDS011;58645;43.068;25.610;2023-06-22T11:39:09;5.20;;;4.18;;
70985;SDS011;58645;43.068;25.610;2023-06-22T11:41:35;5.20;;;4.13;;
70985;SDS011;58645;43.068;25.610;2023-06-22T11:44:00;5.90;;;4.57;;
70985;SDS011;58645;43.068;25.610;2023-06-22T11:46:26;4.88;;;4.25;;
70985;SDS011;58645;43.068;25.610;2023-06-22T11:48:52;4.88;;;4.38;;
70985;SDS011;58645;43.068;25.610;2023-06-22T11:51:18;6.72;;;4.15;;
70985;SDS011;58645;43.068;25.610;2023-06-22T11:53:43;4.90;;;4.35;;
70985;SDS011;58645;43.068;25.610;2023-06-22T11:56:09;6.57;;;4.60;;
70985;SDS011;58645;43.068;25.610;2023-06-22T11:58:35;5.75;;;4.78;;
70985;SDS011;58645;43.068;25.610;2023-06-22T12:01:00;5.22;;;4.40;;
70985;SDS011;58645;43.068;25.610;2023-06-22T12:03:26;4.55;;;4.13;;
70985;SDS011;58645;43.068;25.610;2023-06-22T12:05:52;5.57;;;4.40;;
70985;SDS011;58645;43.068;25.610;2023-06-22T12:08:18;5.60;;;4.20;;
70985;SDS011;58645;43.068;25.610;2023-06-22T12:11:00;7.82;;;4.47;;
70985;SDS011;58645;43.068;25.610;2023-06-22T12:13:25;5.82;;;4.43;;
70985;SDS011;58645;43.068;25.610;2023-06-22T12:15:51;6.28;;;4.50;;
70985;SDS011;58645;43.068;25.610;2023-06-22T12:18:20;6.38;;;4.63;;
70985;SDS011;58645;43.068;25.610;2023-06-22T12:20:46;5.00;;;4.50;;
70985;SDS011;58645;43.068;25.610;2023-06-22T12:23:12;5.30;;;4.80;;
70985;SDS011;58645;43.068;25.610;2023-06-22T12:25:39;5.13;;;4.63;;
70985;SDS011;58645;43.068;25.610;2023-06-22T12:28:05;6.50;;;4.80;;
70985;SDS011;58645;43.068;25.610;2023-06-22T12:30:32;7.22;;;4.28;;
70985;SDS011;58645;43.068;25.610;2023-06-22T12:32:58;5.38;;;4.18;;
70985;SDS011;58645;43.068;25.610;2023-06-22T12:35:24;5.43;;;4.72;;
70985;SDS011;58645;43.068;25.610;2023-06-22T12:37:49;7.30;;;5.13;;
70985;SDS011;58645;43.068;25.610;2023-06-22T12:40:15;5.65;;;4.40;;
70985;SDS011;58645;43.068;25.610;2023-06-22T12:42:41;6.28;;;4.60;;
70985;SDS011;58645;43.068;25.610;2023-06-22T12:45:07;5.15;;;4.30;;
70985;SDS011;58645;43.068;25.610;2023-06-22T12:47:33;5.40;;;4.30;;
70985;SDS011;58645;43.068;25.610;2023-06-22T12:49:59;4.45;;;4.03;;
70985;SDS011;58645;43.068;25.610;2023-06-22T12:52:25;4.55;;;4.15;;
70985;SDS011;58645;43.068;25.610;2023-06-22T12:54:50;4.43;;;4.03;;
70985;SDS011;58645;43.068;25.610;2023-06-22T12:57:17;4.57;;;4.10;;
70985;SDS011;58645;43.068;25.610;2023-06-22T12:59:44;4.10;;;3.70;;
70985;SDS011;58645;43.068;25.610;2023-06-22T13:02:10;4.32;;;3.92;;
70985;SDS011;58645;43.068;25.610;2023-06-22T13:04:36;7.40;;;4.18;;
70985;SDS011;58645;43.068;25.610;2023-06-22T13:07:02;4.82;;;4.00;;
70985;SDS011;58645;43.068;25.610;2023-06-22T13:09:27;4.65;;;4.00;;
70985;SDS011;58645;43.068;25.610;2023-06-22T13:11:53;6.63;;;4.25;;
70985;SDS011;58645;43.068;25.610;2023-06-22T13:14:19;7.13;;;4.28;;
70985;SDS011;58645;43.068;25.610;2023-06-22T13:16:45;5.10;;;4.00;;
70985;SDS011;58645;43.068;25.610;2023-06-22T13:19:10;4.78;;;3.90;;
70985;SDS011;58645;43.068;25.610;2023-06-22T13:21:36;5.18;;;4.00;;
70985;SDS011;58645;43.068;25.610;2023-06-22T13:24:02;5.40;;;4.22;;
70985;SDS011;58645;43.068;25.610;2023-06-22T13:26:28;5.18;;;4.32;;
70985;SDS011;58645;43.068;25.610;2023-06-22T13:28:54;6.07;;;4.30;;
70985;SDS011;58645;43.068;25.610;2023-06-22T13:31:20;5.90;;;4.20;;
70985;SDS011;58645;43.068;25.610;2023-06-22T13:33:46;6.63;;;4.65;;
70985;SDS011;58645;43.068;25.610;2023-06-22T13:36:14;5.45;;;4.57;;
70985;SDS011;58645;43.068;25.610;2023-06-22T13:38:40;5.25;;;4.05;;
70985;SDS011;58645;43.068;25.610;2023-06-22T13:41:06;5.70;;;4.50;;
70985;SDS011;58645;43.068;25.610;2023-06-22T13:43:32;5.05;;;4.55;;
70985;SDS011;58645;43.068;25.610;2023-06-22T13:45:57;5.40;;;4.35;;
70985;SDS011;58645;43.068;25.610;2023-06-22T13:48:23;5.13;;;4.25;;
70985;SDS011;58645;43.068;25.610;2023-06-22T13:50:51;4.72;;;4.20;;
70985;SDS011;58645;43.068;25.610;2023-06-22T13:53:17;5.38;;;4.88;;
70985;SDS011;58645;43.068;25.610;2023-06-22T13:55:43;5.00;;;4.40;;
70985;SDS011;58645;43.068;25.610;2023-06-22T13:58:08;5.35;;;4.63;;
70985;SDS011;58645;43.068;25.610;2023-06-22T14:00:34;5.28;;;4.75;;
70985;SDS011;58645;43.068;25.610;2023-06-22T14:03:00;5.97;;;5.32;;
70985;SDS011;58645;43.068;25.610;2023-06-22T14:05:26;6.13;;;4.80;;
70985;SDS011;58645;43.068;25.610;2023-06-22T14:07:51;6.25;;;4.50;;
70985;SDS011;58645;43.068;25.610;2023-06-22T14:10:17;6.47;;;4.70;;
70985;SDS011;58645;43.068;25.610;2023-06-22T14:12:43;5.60;;;4.53;;
70985;SDS011;58645;43.068;25.610;2023-06-22T14:15:10;6.10;;;4.93;;
70985;SDS011;58645;43.068;25.610;2023-06-22T14:17:35;7.63;;;6.35;;
70985;SDS011;58645;43.068;25.610;2023-06-22T14:20:02;5.90;;;4.95;;
70985;SDS011;58645;43.068;25.610;2023-06-22T14:22:28;6.68;;;5.43;;
70985;SDS011;58645;43.068;25.610;2023-06-22T14:24:54;8.20;;;4.85;;
70985;SDS011;58645;43.068;25.610;2023-06-22T14:27:22;5.90;;;5.22;;
70985;SDS011;58645;43.068;25.610;2023-06-22T14:29:48;7.20;;;5.57;;
70985;SDS011;58645;43.068;25.610;2023-06-22T14:32:14;7.07;;;4.78;;
70985;SDS011;58645;43.068;25.610;2023-06-22T14:34:40;10.88;;;5.70;;
70985;SDS011;58645;43.068;25.610;2023-06-22T14:37:06;6.15;;;4.95;;
70985;SDS011;58645;43.068;25.610;2023-06-22T14:39:32;7.43;;;5.68;;